Time;durP1;ratioP1;P1;durP2;ratioP2;P2;SDS_P1;SDS_P2;PMS_P1;PMS_P2;Temp;Humidity;BMP_temperature;BMP_pressure;BME280_temperature;BME280_humidity;BME280_pressure;Samples;Min_cycle;Max_cycle;Signal;HPM_P1;HPM_P2
2023/08/20 00:01:44;;;;;;;9.52;7.25;;;;;;;;;;5081133;28;20083;-82
2023/08/20 00:04:11;;;;;;;9.02;7.63;;;;;;;;;;5076979;28;20075;-81
2023/08/20 00:06:39;;;;;;;8.27;7.30;;;;;;;;;;5074887;28;20070;-81
2023/08/20 00:09:08;;;;;;;9.60;7.25;;;;;;;;;;5073172;28;20040;-81
2023/08/20 00:11:35;;;;;;;10.30;6.78;;;;;;;;;;5072521;28;20045;-81
2023/08/20 00:14:02;;;;;;;7.30;6.80;;;;;;;;;;5073582;28;20080;-81
2023/08/20 00:16:30;;;;;;;9.40;7.43;;;;;;;;;;5072048;28;20055;-81
2023/08/20 00:18:57;;;;;;;8.82;7.13;;;;;;;;;;5072602;28;20515;-81
2023/08/20 00:21:25;;;;;;;9.35;7.50;;;;;;;;;;5073548;28;20055;-81
2023/08/20 00:23:53;;;;;;;8.48;7.07;;;;;;;;;;5073164;28;20067;-81
2023/08/20 00:26:20;;;;;;;8.63;7.82;;;;;;;;;;5072186;28;20105;-81
2023/08/20 00:28:47;;;;;;;8.82;7.97;;;;;;;;;;5073785;28;20049;-81
2023/08/20 00:31:15;;;;;;;7.88;7.18;;;;;;;;;;5073286;28;20098;-81
2023/08/20 00:33:43;;;;;;;13.60;8.38;;;;;;;;;;5071290;28;20044;-81
2023/08/20 00:36:27;;;;;;;9.00;8.05;;;;;;;;;;5071456;28;20411;-81
2023/08/20 00:38:54;;;;;;;10.60;8.20;;;;;;;;;;5071118;28;20114;-81
2023/08/20 00:41:22;;;;;;;8.88;8.07;;;;;;;;;;5071105;28;20101;-81
2023/08/20 00:43:49;;;;;;;8.85;8.02;;;;;;;;;;5071493;28;20060;-81
2023/08/20 00:46:16;;;;;;;8.65;7.85;;;;;;;;;;5072183;28;20369;-81
2023/08/20 00:48:44;;;;;;;8.93;8.13;;;;;;;;;;5071352;28;20417;-81
2023/08/20 00:51:11;;;;;;;11.65;8.60;;;;;;;;;;5072421;28;20045;-81
2023/08/20 00:53:38;;;;;;;10.25;9.23;;;;;;;;;;5072485;28;20040;-81
2023/08/20 00:56:06;;;;;;;12.70;8.68;;;;;;;;;;5071484;28;20114;-81
2023/08/20 00:58:33;;;;;;;9.90;8.90;;;;;;;;;;5071563;28;20098;-81
2023/08/20 01:01:01;;;;;;;12.35;10.32;;;;;;;;;;5078569;28;20045;-82
2023/08/20 01:03:28;;;;;;;10.65;9.55;;;;;;;;;;5076370;28;20809;-82
2023/08/20 01:06:01;;;;;;;15.18;10.00;;;;;;;;;;5076704;28;20048;-82
2023/08/20 01:08:34;;;;;;;10.05;9.05;;;;;;;;;;5075319;28;20053;-81
2023/08/20 01:11:04;;;;;;;13.23;9.30;;;;;;;;;;5075910;28;20105;-81
2023/08/20 01:13:31;;;;;;;10.40;9.23;;;;;;;;;;5075199;28;20041;-81
2023/08/20 01:15:58;;;;;;;12.43;9.45;;;;;;;;;;5074470;28;20067;-82
2023/08/20 01:18:26;;;;;;;9.77;8.85;;;;;;;;;;5074778;28;20404;-81
2023/08/20 01:20:56;;;;;;;11.63;8.95;;;;;;;;;;5074364;28;20052;-81
2023/08/20 01:23:29;;;;;;;11.55;10.25;;;;;;;;;;5073535;28;20052;-81
2023/08/20 01:25:59;;;;;;;10.68;9.50;;;;;;;;;;5073441;28;20056;-81
2023/08/20 01:28:28;;;;;;;10.13;9.07;;;;;;;;;;5073047;28;20048;-81
2023/08/20 01:30:57;;;;;;;10.77;9.70;;;;;;;;;;5072802;28;20090;-81
2023/08/20 01:33:24;;;;;;;10.52;9.57;;;;;;;;;;5072265;28;20040;-81
2023/08/20 01:35:55;;;;;;;11.63;9.45;;;;;;;;;;5075721;28;20044;-81
2023/08/20 01:38:23;;;;;;;11.00;10.00;;;;;;;;;;5075785;28;20044;-81
2023/08/20 01:40:50;;;;;;;15.60;9.63;;;;;;;;;;5077329;28;20044;-81
2023/08/20 01:43:17;;;;;;;14.18;10.20;;;;;;;;;;5077257;28;20059;-81
2023/08/20 01:45:45;;;;;;;10.43;9.52;;;;;;;;;;5075660;28;20102;-81
2023/08/20 01:48:12;;;;;;;12.85;10.38;;;;;;;;;;5076594;28;20600;-81
2023/08/20 01:50:40;;;;;;;11.10;10.00;;;;;;;;;;5076850;28;20055;-81
2023/08/20 01:53:07;;;;;;;11.00;10.00;;;;;;;;;;5077080;28;20484;-81
2023/08/20 01:55:34;;;;;;;11.57;10.55;;;;;;;;;;5075133;28;20052;-82
2023/08/20 01:58:02;;;;;;;11.85;10.10;;;;;;;;;;5076518;28;20045;-82
2023/08/20 02:00:30;;;;;;;10.82;9.82;;;;;;;;;;5075748;28;20110;-82
2023/08/20 02:02:57;;;;;;;11.07;9.52;;;;;;;;;;5074882;28;20053;-82
2023/08/20 02:05:25;;;;;;;11.93;10.82;;;;;;;;;;5074697;28;20467;-82
2023/08/20 02:07:52;;;;;;;12.43;10.68;;;;;;;;;;5076086;28;20058;-82
2023/08/20 02:10:21;;;;;;;12.15;10.80;;;;;;;;;;5075664;28;20048;-82
2023/08/20 02:12:48;;;;;;;11.60;10.43;;;;;;;;;;5074033;28;20040;-82
2023/08/20 02:15:15;;;;;;;11.88;10.63;;;;;;;;;;5074829;28;20048;-82
2023/08/20 02:17:42;;;;;;;12.35;10.05;;;;;;;;;;5073821;28;20068;-82
2023/08/20 02:20:10;;;;;;;11.38;10.20;;;;;;;;;;5073997;28;20048;-82
2023/08/20 02:22:37;;;;;;;11.80;10.55;;;;;;;;;;5073931;28;20056;-81
2023/08/20 02:25:05;;;;;;;15.23;11.02;;;;;;;;;;5073996;28;20499;-81
2023/08/20 02:27:32;;;;;;;13.45;10.63;;;;;;;;;;5073291;28;20048;-81
2023/08/20 02:30:00;;;;;;;11.43;10.27;;;;;;;;;;5074944;28;20041;-81
2023/08/20 02:32:27;;;;;;;12.05;10.68;;;;;;;;;;5073495;28;20541;-81
2023/08/20 02:34:54;;;;;;;13.25;10.65;;;;;;;;;;5074923;28;20101;-81
2023/08/20 02:37:21;;;;;;;11.75;10.65;;;;;;;;;;5076766;28;20052;-82
2023/08/20 02:39:49;;;;;;;13.18;11.05;;;;;;;;;;5080664;28;20098;-82
2023/08/20 02:42:16;;;;;;;12.50;11.07;;;;;;;;;;5079337;28;20057;-82
2023/08/20 02:44:43;;;;;;;13.77;12.38;;;;;;;;;;5078380;28;20052;-82
2023/08/20 02:47:10;;;;;;;17.88;12.07;;;;;;;;;;5079106;28;20053;-82
2023/08/20 02:49:38;;;;;;;15.57;12.50;;;;;;;;;;5078960;28;20045;-82
2023/08/20 02:52:05;;;;;;;14.13;12.65;;;;;;;;;;5077578;28;20044;-82
2023/08/20 02:54:32;;;;;;;15.80;13.43;;;;;;;;;;5077886;28;20502;-82
2023/08/20 02:57:00;;;;;;;14.38;12.80;;;;;;;;;;5077116;28;20114;-82
2023/08/20 02:59:27;;;;;;;15.10;13.02;;;;;;;;;;5076915;28;20060;-82
2023/08/20 03:01:55;;;;;;;15.73;12.43;;;;;;;;;;5075566;28;20055;-82
2023/08/20 03:04:22;;;;;;;17.15;12.50;;;;;;;;;;5074858;28;20052;-81
2023/08/20 03:06:49;;;;;;;15.55;12.65;;;;;;;;;;5075368;28;20048;-82
2023/08/20 03:09:16;;;;;;;15.48;12.13;;;;;;;;;;5074611;28;20048;-82
2023/08/20 03:11:44;;;;;;;13.63;12.20;;;;;;;;;;5075646;28;20136;-82
2023/08/20 03:14:11;;;;;;;16.73;12.25;;;;;;;;;;5074125;28;20607;-81
2023/08/20 03:16:38;;;;;;;15.75;13.20;;;;;;;;;;5073996;28;20568;-82
2023/08/20 03:19:05;;;;;;;13.07;11.77;;;;;;;;;;5073965;28;20056;-82
2023/08/20 03:21:33;;;;;;;15.20;12.57;;;;;;;;;;5073742;28;20057;-82
2023/08/20 03:24:00;;;;;;;14.13;12.60;;;;;;;;;;5074623;28;20053;-82
2023/08/20 03:26:27;;;;;;;15.77;12.25;;;;;;;;;;5074239;28;20049;-82
2023/08/20 03:28:55;;;;;;;13.45;12.23;;;;;;;;;;5072676;28;20048;-81
2023/08/20 03:31:22;;;;;;;15.02;13.20;;;;;;;;;;5074237;28;20495;-82
2023/08/20 03:33:49;;;;;;;13.70;12.23;;;;;;;;;;5073464;28;20140;-82
2023/08/20 03:36:16;;;;;;;17.88;12.80;;;;;;;;;;5072626;28;20041;-81
2023/08/20 03:38:44;;;;;;;14.23;11.23;;;;;;;;;;5074074;28;20560;-82
2023/08/20 03:41:11;;;;;;;14.45;13.10;;;;;;;;;;5072704;28;20045;-81
2023/08/20 03:43:38;;;;;;;17.88;12.88;;;;;;;;;;5072901;28;20403;-81
2023/08/20 03:46:05;;;;;;;16.13;12.93;;;;;;;;;;5072584;28;20048;-81
2023/08/20 03:48:33;;;;;;;12.55;11.23;;;;;;;;;;5072378;28;20053;-81
2023/08/20 03:51:00;;;;;;;11.98;10.85;;;;;;;;;;5072989;28;20044;-82
2023/08/20 03:53:27;;;;;;;15.13;13.32;;;;;;;;;;5072610;28;20169;-82
2023/08/20 03:55:54;;;;;;;14.60;12.90;;;;;;;;;;5073651;28;20410;-81
2023/08/20 03:58:21;;;;;;;18.85;15.05;;;;;;;;;;5071345;28;20106;-81
2023/08/20 04:00:49;;;;;;;14.95;13.05;;;;;;;;;;5073946;28;20098;-81
2023/08/20 04:03:19;;;;;;;14.35;12.93;;;;;;;;;;5072167;28;20058;-82
2023/08/20 04:05:46;;;;;;;14.43;12.43;;;;;;;;;;5071901;28;20066;-81
2023/08/20 04:08:13;;;;;;;15.20;12.82;;;;;;;;;;5071826;28;20098;-82
2023/08/20 04:10:45;;;;;;;14.98;13.18;;;;;;;;;;5071907;28;20048;-81
2023/08/20 04:13:13;;;;;;;14.93;12.35;;;;;;;;;;5073427;28;20080;-81
2023/08/20 04:15:41;;;;;;;18.88;13.05;;;;;;;;;;5077093;28;20055;-82
2023/08/20 04:18:08;;;;;;;13.65;12.23;;;;;;;;;;5077582;28;20080;-82
2023/08/20 04:20:36;;;;;;;15.43;13.15;;;;;;;;;;5076306;28;20050;-82
2023/08/20 04:23:04;;;;;;;18.02;13.80;;;;;;;;;;5076469;28;20048;-82
2023/08/20 04:25:31;;;;;;;12.70;11.40;;;;;;;;;;5075604;28;20070;-82
2023/08/20 04:27:58;;;;;;;15.27;13.57;;;;;;;;;;5074813;28;20057;-82
2023/08/20 04:30:25;;;;;;;17.23;12.60;;;;;;;;;;5074423;28;20400;-82
2023/08/20 04:32:53;;;;;;;14.43;12.77;;;;;;;;;;5075725;28;20113;-82
2023/08/20 04:35:20;;;;;;;17.95;13.40;;;;;;;;;;5076016;28;20048;-82
2023/08/20 04:37:47;;;;;;;20.73;13.98;;;;;;;;;;5074287;28;20048;-82
2023/08/20 04:40:14;;;;;;;15.50;12.60;;;;;;;;;;5073787;28;20053;-81
2023/08/20 04:42:44;;;;;;;20.30;16.80;;;;;;;;;;5073231;28;20049;-82
2023/08/20 04:45:12;;;;;;;19.85;17.15;;;;;;;;;;5074592;28;20657;-82
2023/08/20 04:47:39;;;;;;;17.05;15.45;;;;;;;;;;5072763;28;20113;-82
2023/08/20 04:50:07;;;;;;;21.45;14.43;;;;;;;;;;5074006;28;20049;-82
2023/08/20 04:52:34;;;;;;;15.73;12.75;;;;;;;;;;5074267;28;20049;-82
2023/08/20 04:55:02;;;;;;;16.88;11.60;;;;;;;;;;5073492;28;20072;-82
2023/08/20 04:57:29;;;;;;;14.05;11.65;;;;;;;;;;5072260;28;20048;-82
2023/08/20 04:59:57;;;;;;;12.35;10.57;;;;;;;;;;5072047;28;20055;-82
2023/08/20 05:02:24;;;;;;;11.82;10.63;;;;;;;;;;5073984;28;20060;-82
2023/08/20 05:04:54;;;;;;;11.82;9.60;;;;;;;;;;5079729;28;20127;-82
2023/08/20 05:07:21;;;;;;;10.48;9.18;;;;;;;;;;5080208;28;20491;-82
2023/08/20 05:09:50;;;;;;;12.65;9.50;;;;;;;;;;5084165;28;20071;-82
2023/08/20 05:12:17;;;;;;;12.02;10.57;;;;;;;;;;5082165;28;20063;-82
2023/08/20 05:14:44;;;;;;;14.45;9.35;;;;;;;;;;5081335;28;20044;-82
2023/08/20 05:17:11;;;;;;;11.75;9.52;;;;;;;;;;5079526;28;20086;-82
2023/08/20 05:19:38;;;;;;;15.40;9.00;;;;;;;;;;5079905;28;20102;-82
2023/08/20 05:22:06;;;;;;;10.00;9.05;;;;;;;;;;5079071;28;20102;-81
2023/08/20 05:24:33;;;;;;;10.45;8.43;;;;;;;;;;5077773;28;20048;-81
2023/08/20 05:27:19;;;;;;;8.38;7.68;;;;;;;;;;5076551;28;20419;-81
2023/08/20 05:29:46;;;;;;;9.98;8.65;;;;;;;;;;5076075;28;20049;-81
2023/08/20 05:32:16;;;;;;;8.73;7.93;;;;;;;;;;5075993;28;20059;-82
2023/08/20 05:34:43;;;;;;;8.15;7.38;;;;;;;;;;5077282;28;20080;-82
2023/08/20 05:37:10;;;;;;;8.05;6.85;;;;;;;;;;5078077;28;20495;-82
2023/08/20 05:39:38;;;;;;;8.80;6.95;;;;;;;;;;5078387;28;20057;-82
2023/08/20 05:42:05;;;;;;;10.48;7.00;;;;;;;;;;5079075;28;20048;-82
2023/08/20 05:44:33;;;;;;;10.73;6.80;;;;;;;;;;5077846;28;20079;-82
2023/08/20 05:47:01;;;;;;;8.88;6.97;;;;;;;;;;5076883;28;20052;-82
2023/08/20 05:49:28;;;;;;;13.23;7.05;;;;;;;;;;5077320;28;20052;-82
2023/08/20 05:51:57;;;;;;;9.65;6.40;;;;;;;;;;5079551;28;20052;-82
2023/08/20 05:54:24;;;;;;;12.68;6.50;;;;;;;;;;5082573;28;20344;-82
2023/08/20 05:56:52;;;;;;;15.82;7.57;;;;;;;;;;5081323;28;20094;-82
2023/08/20 05:59:19;;;;;;;9.30;7.78;;;;;;;;;;5080648;28;20040;-82
2023/08/20 06:01:46;;;;;;;14.52;7.20;;;;;;;;;;5081459;28;20045;-82
2023/08/20 06:04:13;;;;;;;10.88;7.70;;;;;;;;;;5080560;28;20041;-82
2023/08/20 06:06:40;;;;;;;12.10;7.45;;;;;;;;;;5079761;28;20044;-82
2023/08/20 06:09:08;;;;;;;13.38;7.78;;;;;;;;;;5078319;28;20127;-82
2023/08/20 06:11:36;;;;;;;7.38;6.68;;;;;;;;;;5079013;28;20124;-82
2023/08/20 06:14:03;;;;;;;7.97;7.13;;;;;;;;;;5077286;28;20503;-82
2023/08/20 06:16:31;;;;;;;9.13;7.78;;;;;;;;;;5075572;28;20049;-82
2023/08/20 06:18:58;;;;;;;8.52;7.70;;;;;;;;;;5078656;28;20450;-82
2023/08/20 06:21:29;;;;;;;8.45;7.18;;;;;;;;;;5075713;28;20063;-82
2023/08/20 06:23:56;;;;;;;10.20;8.40;;;;;;;;;;5075966;28;20556;-82
2023/08/20 06:26:23;;;;;;;9.48;8.20;;;;;;;;;;5076305;28;20506;-82
2023/08/20 06:28:51;;;;;;;9.75;8.07;;;;;;;;;;5076318;28;20056;-82
2023/08/20 06:31:18;;;;;;;10.48;8.40;;;;;;;;;;5075246;28;20453;-82
2023/08/20 06:33:47;;;;;;;9.48;8.45;;;;;;;;;;5075692;28;20062;-82
2023/08/20 06:36:14;;;;;;;11.80;8.50;;;;;;;;;;5076625;28;20055;-82
2023/08/20 06:38:43;;;;;;;9.25;7.43;;;;;;;;;;5075529;28;20048;-82
2023/08/20 06:41:11;;;;;;;14.40;7.53;;;;;;;;;;5075611;28;20049;-82
2023/08/20 06:43:38;;;;;;;8.98;7.55;;;;;;;;;;5077754;28;20498;-82
2023/08/20 06:46:05;;;;;;;10.57;8.23;;;;;;;;;;5076517;28;20575;-82
2023/08/20 06:48:32;;;;;;;12.82;7.95;;;;;;;;;;5076874;28;20498;-82
2023/08/20 06:51:07;;;;;;;12.30;8.20;;;;;;;;;;5077758;28;20626;-82
2023/08/20 06:53:35;;;;;;;13.48;7.97;;;;;;;;;;5076784;28;20048;-82
2023/08/20 06:56:02;;;;;;;10.30;7.57;;;;;;;;;;5076626;28;20098;-82
2023/08/20 06:58:29;;;;;;;9.75;7.40;;;;;;;;;;5076156;28;20045;-82
2023/08/20 07:01:06;;;;;;;10.77;8.07;;;;;;;;;;5077965;28;20052;-82
2023/08/20 07:03:35;;;;;;;10.98;7.53;;;;;;;;;;5074357;28;20139;-82
2023/08/20 07:06:02;;;;;;;11.30;8.80;;;;;;;;;;5074853;28;20107;-82
2023/08/20 07:08:29;;;;;;;12.10;8.95;;;;;;;;;;5073728;28;20476;-82
2023/08/20 07:10:57;;;;;;;12.43;9.70;;;;;;;;;;5073967;28;20048;-82
2023/08/20 07:13:24;;;;;;;11.43;10.23;;;;;;;;;;5075115;28;20473;-82
2023/08/20 07:15:51;;;;;;;10.68;9.68;;;;;;;;;;5073521;28;20048;-82
2023/08/20 07:18:18;;;;;;;12.70;9.95;;;;;;;;;;5075034;28;20514;-82
2023/08/20 07:20:46;;;;;;;11.25;10.05;;;;;;;;;;5073684;28;20110;-82
2023/08/20 07:23:13;;;;;;;11.90;10.70;;;;;;;;;;5074638;28;20127;-82
2023/08/20 07:25:41;;;;;;;12.95;11.65;;;;;;;;;;5076699;28;20048;-82
2023/08/20 07:28:09;;;;;;;13.00;11.68;;;;;;;;;;5076945;28;20052;-82
2023/08/20 07:30:36;;;;;;;12.10;10.93;;;;;;;;;;5080365;28;20044;-82
2023/08/20 07:33:04;;;;;;;14.77;11.00;;;;;;;;;;5078879;28;20052;-82
2023/08/20 07:35:35;;;;;;;12.25;10.52;;;;;;;;;;5078212;28;20075;-83
2023/08/20 07:38:02;;;;;;;13.50;12.07;;;;;;;;;;5079632;28;20049;-83
2023/08/20 07:40:29;;;;;;;15.20;12.20;;;;;;;;;;5077163;28;20053;-82
2023/08/20 07:43:00;;;;;;;13.18;11.15;;;;;;;;;;5077295;28;20048;-82
2023/08/20 07:45:27;;;;;;;13.75;12.23;;;;;;;;;;5077828;28;20418;-82
2023/08/20 07:47:55;;;;;;;13.35;11.10;;;;;;;;;;5076402;28;20040;-82
2023/08/20 07:50:22;;;;;;;14.63;12.85;;;;;;;;;;5073146;28;20076;-83
2023/08/20 07:52:49;;;;;;;19.05;14.07;;;;;;;;;;5076597;28;20066;-82
2023/08/20 07:55:16;;;;;;;15.90;13.02;;;;;;;;;;5076616;28;20559;-82
2023/08/20 07:57:44;;;;;;;14.38;11.88;;;;;;;;;;5079197;28;20048;-82
2023/08/20 08:00:11;;;;;;;18.15;13.63;;;;;;;;;;5080518;28;20056;-82
2023/08/20 08:02:38;;;;;;;15.18;11.60;;;;;;;;;;5079688;28;20044;-82
2023/08/20 08:05:06;;;;;;;16.95;13.63;;;;;;;;;;5078051;28;20045;-82
2023/08/20 08:07:33;;;;;;;13.70;10.63;;;;;;;;;;5077850;28;20045;-82
2023/08/20 08:10:01;;;;;;;14.93;11.35;;;;;;;;;;5078173;28;20099;-82
2023/08/20 08:12:28;;;;;;;13.02;11.63;;;;;;;;;;5079471;28;20052;-82
2023/08/20 08:14:55;;;;;;;16.23;13.05;;;;;;;;;;5077325;28;20041;-82
2023/08/20 08:17:23;;;;;;;12.85;11.27;;;;;;;;;;5078829;28;20055;-82
2023/08/20 08:19:53;;;;;;;18.38;14.05;;;;;;;;;;5079534;28;20044;-82
2023/08/20 08:22:20;;;;;;;19.75;13.18;;;;;;;;;;5079203;28;20070;-82
2023/08/20 08:24:48;;;;;;;15.65;12.25;;;;;;;;;;5079070;28;20418;-82
2023/08/20 08:27:15;;;;;;;15.40;12.73;;;;;;;;;;5078456;28;20052;-83
2023/08/20 08:29:44;;;;;;;17.63;14.38;;;;;;;;;;5077263;28;20059;-82
2023/08/20 08:32:11;;;;;;;22.17;15.27;;;;;;;;;;5079564;28;20094;-82
2023/08/20 08:34:38;;;;;;;21.67;14.80;;;;;;;;;;5079985;28;20071;-82
2023/08/20 08:37:06;;;;;;;24.83;18.08;;;;;;;;;;5077670;28;20048;-82
2023/08/20 08:39:33;;;;;;;18.42;14.48;;;;;;;;;;5076148;28;20044;-82
2023/08/20 08:42:04;;;;;;;18.83;15.02;;;;;;;;;;5075310;28;20113;-82
2023/08/20 08:44:33;;;;;;;20.48;16.40;;;;;;;;;;5076749;28;20114;-82
2023/08/20 08:47:01;;;;;;;17.88;14.93;;;;;;;;;;5075347;28;20059;-82
2023/08/20 08:49:30;;;;;;;26.48;17.83;;;;;;;;;;5076797;28;20056;-82
2023/08/20 08:51:58;;;;;;;21.85;15.88;;;;;;;;;;5077292;28;20045;-82
2023/08/20 08:54:25;;;;;;;21.73;16.83;;;;;;;;;;5078007;28;20071;-83
2023/08/20 08:56:53;;;;;;;26.08;17.15;;;;;;;;;;5077116;28;20041;-82
2023/08/20 08:59:20;;;;;;;19.77;17.00;;;;;;;;;;5078047;28;20511;-83
2023/08/20 09:01:48;;;;;;;26.58;18.17;;;;;;;;;;5077823;28;20044;-82
2023/08/20 09:04:15;;;;;;;25.30;16.73;;;;;;;;;;5077908;28;20098;-82
2023/08/20 09:06:46;;;;;;;22.20;17.52;;;;;;;;;;5078867;28;20454;-82
2023/08/20 09:09:13;;;;;;;20.38;14.80;;;;;;;;;;5081183;28;20055;-82
2023/08/20 09:11:41;;;;;;;21.58;15.50;;;;;;;;;;5089865;28;20094;-82
2023/08/20 09:14:08;;;;;;;20.50;16.27;;;;;;;;;;5082545;28;20079;-82
2023/08/20 09:16:35;;;;;;;26.00;18.42;;;;;;;;;;5091619;28;20066;-82
2023/08/20 09:19:03;;;;;;;22.70;17.05;;;;;;;;;;5095539;28;20068;-81
2023/08/20 09:21:30;;;;;;;21.77;16.98;;;;;;;;;;5094868;28;20048;-82
2023/08/20 09:23:58;;;;;;;20.50;16.88;;;;;;;;;;5094929;28;20118;-83
2023/08/20 09:26:25;;;;;;;20.23;17.08;;;;;;;;;;5086975;28;20049;-82
2023/08/20 09:28:54;;;;;;;22.05;16.23;;;;;;;;;;5070528;28;20339;-81
2023/08/20 09:31:36;;;;;;;22.42;16.23;;;;;;;;;;5071560;28;20044;-82
2023/08/20 09:34:04;;;;;;;22.13;15.50;;;;;;;;;;5074441;28;20141;-82
2023/08/20 09:36:32;;;;;;;22.20;16.85;;;;;;;;;;5074661;28;20048;-82
2023/08/20 09:38:59;;;;;;;24.95;18.38;;;;;;;;;;5073544;28;20048;-82
2023/08/20 09:41:27;;;;;;;24.02;18.05;;;;;;;;;;5082872;28;20037;-84
2023/08/20 09:43:56;;;;;;;20.52;17.55;;;;;;;;;;5079423;28;20056;-82
2023/08/20 09:46:27;;;;;;;21.23;16.05;;;;;;;;;;5084065;28;20052;-82
2023/08/20 09:49:00;;;;;;;28.70;16.58;;;;;;;;;;5095262;28;20029;-82
2023/08/20 09:51:28;;;;;;;17.30;14.48;;;;;;;;;;5094833;28;20059;-82
2023/08/20 09:53:58;;;;;;;18.63;15.77;;;;;;;;;;5095426;28;20040;-82
2023/08/20 09:56:29;;;;;;;23.77;16.52;;;;;;;;;;5096492;28;20055;-83
2023/08/20 09:58:58;;;;;;;23.08;17.10;;;;;;;;;;5093745;28;20049;-82
2023/08/20 10:01:26;;;;;;;23.02;16.77;;;;;;;;;;5077986;28;20053;-83
2023/08/20 10:03:54;;;;;;;22.40;16.25;;;;;;;;;;5081131;28;20477;-82
2023/08/20 10:06:24;;;;;;;18.27;16.38;;;;;;;;;;5062894;28;20082;-82
2023/08/20 10:08:51;;;;;;;22.10;15.88;;;;;;;;;;5081361;28;20053;-82
2023/08/20 10:11:18;;;;;;;18.92;14.23;;;;;;;;;;5081984;28;20049;-82
2023/08/20 10:13:46;;;;;;;15.60;13.98;;;;;;;;;;5080412;28;20052;-82
2023/08/20 10:16:14;;;;;;;15.38;13.43;;;;;;;;;;5079406;28;20392;-82
2023/08/20 10:18:41;;;;;;;15.80;13.23;;;;;;;;;;5078850;28;20110;-82
2023/08/20 10:21:09;;;;;;;19.02;14.15;;;;;;;;;;5080038;28;20048;-82
2023/08/20 10:23:44;;;;;;;18.70;14.82;;;;;;;;;;5080023;28;20048;-82
2023/08/20 10:26:11;;;;;;;16.08;14.38;;;;;;;;;;5080373;28;20048;-82
2023/08/20 10:28:40;;;;;;;19.73;16.52;;;;;;;;;;5079993;28;20056;-82
2023/08/20 10:31:09;;;;;;;19.27;15.95;;;;;;;;;;5078822;28;20059;-82
2023/08/20 10:33:37;;;;;;;24.77;16.17;;;;;;;;;;5077914;28;20080;-82
2023/08/20 10:36:08;;;;;;;18.58;15.18;;;;;;;;;;5082445;28;20044;-82
2023/08/20 10:38:39;;;;;;;18.45;16.23;;;;;;;;;;5079651;28;20052;-81
2023/08/20 10:41:08;;;;;;;19.40;16.88;;;;;;;;;;5092509;28;20113;-82
2023/08/20 10:43:39;;;;;;;16.83;14.93;;;;;;;;;;5095618;28;20045;-83
2023/08/20 10:46:16;;;;;;;17.52;15.40;;;;;;;;;;5081938;28;20049;-82
2023/08/20 10:48:47;;;;;;;17.35;15.48;;;;;;;;;;5080756;28;20110;-82
2023/08/20 10:51:19;;;;;;;20.42;16.10;;;;;;;;;;5087317;28;20052;-82
2023/08/20 10:54:05;;;;;;;20.23;15.05;;;;;;;;;;5079511;28;20045;-82
2023/08/20 10:56:43;;;;;;;19.65;16.38;;;;;;;;;;5077571;28;20052;-82
2023/08/20 10:59:17;;;;;;;24.63;19.23;;;;;;;;;;5077926;28;20052;-82
2023/08/20 11:01:45;;;;;;;24.45;18.58;;;;;;;;;;5076820;28;20068;-82
2023/08/20 11:04:14;;;;;;;24.17;19.60;;;;;;;;;;5073374;28;20064;-81
2023/08/20 11:06:42;;;;;;;24.42;19.40;;;;;;;;;;5073867;28;20045;-82
2023/08/20 11:09:10;;;;;;;25.58;21.17;;;;;;;;;;5081853;28;20040;-85
2023/08/20 11:11:41;;;;;;;23.00;19.83;;;;;;;;;;5084011;28;20045;-82
2023/08/20 11:14:13;;;;;;;22.33;19.92;;;;;;;;;;5079538;28;20052;-82
2023/08/20 11:16:41;;;;;;;25.83;22.60;;;;;;;;;;5087002;28;20053;-82
2023/08/20 11:19:09;;;;;;;27.85;21.20;;;;;;;;;;5083704;28;20055;-82
2023/08/20 11:21:38;;;;;;;31.38;21.30;;;;;;;;;;5080154;28;20511;-82
2023/08/20 11:24:06;;;;;;;24.85;18.88;;;;;;;;;;5080828;28;20052;-82
2023/08/20 11:26:38;;;;;;;19.77;17.63;;;;;;;;;;5086672;28;20127;-82
2023/08/20 11:29:06;;;;;;;18.42;16.55;;;;;;;;;;5093822;28;20053;-82
2023/08/20 11:31:34;;;;;;;24.20;18.83;;;;;;;;;;5093740;28;20284;-82
2023/08/20 11:34:02;;;;;;;24.38;18.77;;;;;;;;;;5092092;28;20041;-82
2023/08/20 11:36:30;;;;;;;23.38;18.15;;;;;;;;;;5092461;28;20072;-82
2023/08/20 11:38:57;;;;;;;22.10;19.63;;;;;;;;;;5084843;28;20407;-82
2023/08/20 11:41:25;;;;;;;25.65;20.15;;;;;;;;;;5077570;28;20052;-83
2023/08/20 11:43:53;;;;;;;25.23;20.95;;;;;;;;;;5077137;28;20052;-82
2023/08/20 11:46:22;;;;;;;21.88;19.65;;;;;;;;;;5077917;28;20129;-82
2023/08/20 11:49:03;;;;;;;27.35;20.73;;;;;;;;;;5078213;28;20131;-84
2023/08/20 11:51:37;;;;;;;23.50;18.30;;;;;;;;;;5058628;28;20491;-82
2023/08/20 11:54:05;;;;;;;23.15;19.52;;;;;;;;;;5061098;28;20053;-82
2023/08/20 11:56:33;;;;;;;34.53;19.73;;;;;;;;;;5065094;28;20044;-83
2023/08/20 11:59:01;;;;;;;20.95;18.80;;;;;;;;;;5061264;28;20045;-82
2023/08/20 12:01:32;;;;;;;24.48;19.60;;;;;;;;;;5061199;28;20122;-83
2023/08/20 12:04:07;;;;;;;24.25;17.80;;;;;;;;;;5061477;28;20052;-83
2023/08/20 12:06:35;;;;;;;27.05;18.63;;;;;;;;;;5069690;28;20075;-82
2023/08/20 12:09:04;;;;;;;21.17;18.95;;;;;;;;;;5072036;28;20049;-82
2023/08/20 12:11:33;;;;;;;19.25;17.30;;;;;;;;;;5062987;28;20102;-83
2023/08/20 12:14:00;;;;;;;20.38;17.65;;;;;;;;;;5062226;28;20045;-83
2023/08/20 12:16:28;;;;;;;24.02;18.08;;;;;;;;;;5059924;28;20052;-82
2023/08/20 12:18:55;;;;;;;18.05;16.25;;;;;;;;;;5057916;28;20132;-82
2023/08/20 12:21:22;;;;;;;20.35;16.98;;;;;;;;;;5057957;28;20356;-83
2023/08/20 12:23:50;;;;;;;21.45;18.42;;;;;;;;;;5057536;28;20057;-82
2023/08/20 12:26:18;;;;;;;20.83;17.52;;;;;;;;;;5060010;28;20049;-83
2023/08/20 12:28:45;;;;;;;21.25;17.60;;;;;;;;;;5059014;28;20431;-83
2023/08/20 12:31:12;;;;;;;19.95;17.52;;;;;;;;;;5064618;28;20052;-82
2023/08/20 12:33:39;;;;;;;19.13;17.13;;;;;;;;;;5060615;28;20049;-83
2023/08/20 12:36:07;;;;;;;17.58;15.75;;;;;;;;;;5059730;28;20041;-82
2023/08/20 12:38:34;;;;;;;16.73;14.90;;;;;;;;;;5060155;28;20049;-82
2023/08/20 12:41:04;;;;;;;17.27;15.48;;;;;;;;;;5060492;28;20045;-82
2023/08/20 12:43:31;;;;;;;19.55;16.75;;;;;;;;;;5060016;28;20045;-82
2023/08/20 12:45:58;;;;;;;16.00;14.40;;;;;;;;;;5051882;28;20408;-82
2023/08/20 12:48:25;;;;;;;18.17;14.90;;;;;;;;;;5052206;28;20045;-82
2023/08/20 12:50:53;;;;;;;23.52;15.48;;;;;;;;;;5052579;28;20121;-82
2023/08/20 12:53:21;;;;;;;15.88;13.55;;;;;;;;;;5053077;28;20690;-82
2023/08/20 12:55:48;;;;;;;16.50;14.80;;;;;;;;;;5052959;28;20045;-83
2023/08/20 12:58:15;;;;;;;14.95;13.48;;;;;;;;;;5052254;28;20511;-82
2023/08/20 13:00:42;;;;;;;15.75;14.00;;;;;;;;;;5052163;28;20118;-81
2023/08/20 13:03:10;;;;;;;18.33;13.15;;;;;;;;;;5054486;28;20060;-82
2023/08/20 13:05:37;;;;;;;14.95;13.45;;;;;;;;;;5057659;28;20515;-82
2023/08/20 13:08:05;;;;;;;15.18;13.65;;;;;;;;;;5056038;28;20130;-84
2023/08/20 13:10:32;;;;;;;16.65;13.60;;;;;;;;;;5055476;28;20057;-82
2023/08/20 13:13:03;;;;;;;15.27;13.75;;;;;;;;;;5057304;28;20052;-82
2023/08/20 13:15:30;;;;;;;14.38;12.90;;;;;;;;;;5058221;28;20103;-83
2023/08/20 13:17:57;;;;;;;14.10;12.80;;;;;;;;;;5055623;28;20049;-82
2023/08/20 13:20:27;;;;;;;15.55;13.18;;;;;;;;;;5058599;28;20041;-82
2023/08/20 13:22:54;;;;;;;17.15;13.55;;;;;;;;;;5056939;28;20099;-81
2023/08/20 13:25:21;;;;;;;15.23;13.57;;;;;;;;;;5056851;28;20053;-82
2023/08/20 13:27:49;;;;;;;16.17;13.77;;;;;;;;;;5053912;28;20503;-82
2023/08/20 13:30:17;;;;;;;15.75;12.32;;;;;;;;;;5056128;28;20049;-82
2023/08/20 13:32:45;;;;;;;14.55;12.50;;;;;;;;;;5060374;28;20045;-83
2023/08/20 13:35:14;;;;;;;13.73;12.32;;;;;;;;;;5059849;28;20049;-85
2023/08/20 13:37:42;;;;;;;13.68;12.25;;;;;;;;;;5062082;28;20049;-82
2023/08/20 13:40:09;;;;;;;14.88;13.15;;;;;;;;;;5061131;28;20048;-82
2023/08/20 13:42:37;;;;;;;13.55;12.20;;;;;;;;;;5061628;28;20045;-81
2023/08/20 13:45:05;;;;;;;13.55;12.18;;;;;;;;;;5060257;28;20589;-83
2023/08/20 13:47:32;;;;;;;12.63;11.52;;;;;;;;;;5060464;28;20060;-82
2023/08/20 13:50:00;;;;;;;15.93;12.30;;;;;;;;;;5067881;28;20423;-82
2023/08/20 13:52:28;;;;;;;16.65;12.32;;;;;;;;;;5067164;28;20107;-84
2023/08/20 13:54:55;;;;;;;13.45;12.23;;;;;;;;;;5063208;28;20052;-82
2023/08/20 13:57:22;;;;;;;14.15;12.15;;;;;;;;;;5062776;28;20049;-82
2023/08/20 13:59:50;;;;;;;13.38;11.35;;;;;;;;;;5061955;28;20049;-82
2023/08/20 14:02:17;;;;;;;13.52;12.02;;;;;;;;;;5063366;28;20106;-82
2023/08/20 14:04:44;;;;;;;17.38;13.90;;;;;;;;;;5061691;28;20049;-84
2023/08/20 14:07:11;;;;;;;15.88;12.90;;;;;;;;;;5061165;28;20551;-84
2023/08/20 14:09:39;;;;;;;16.10;13.30;;;;;;;;;;5065563;28;20469;-84
2023/08/20 14:12:07;;;;;;;13.93;12.35;;;;;;;;;;5079604;28;20098;-82
2023/08/20 14:14:34;;;;;;;14.73;12.52;;;;;;;;;;5083184;28;20556;-83
2023/08/20 14:17:02;;;;;;;15.65;14.07;;;;;;;;;;5082538;28;20109;-82
2023/08/20 14:19:30;;;;;;;16.45;14.52;;;;;;;;;;5081339;28;20040;-82
2023/08/20 14:21:57;;;;;;;15.85;13.82;;;;;;;;;;5081594;28;20048;-82
2023/08/20 14:24:24;;;;;;;15.38;13.80;;;;;;;;;;5076314;28;20052;-82
2023/08/20 14:26:51;;;;;;;19.20;14.23;;;;;;;;;;5074089;28;20068;-82